createdAt,value
2017-08-01T00:00:52.970Z,0
2017-08-01T00:01:54.785Z,0
2017-08-01T00:02:56.619Z,0
2017-08-01T00:03:58.486Z,0
2017-08-01T00:05:00.362Z,0
2017-08-01T00:06:02.257Z,0
2017-08-01T00:07:16.425Z,0
2017-08-01T00:08:18.297Z,0
2017-08-01T00:09:20.194Z,0
2017-08-01T00:10:22.070Z,0
2017-08-01T00:11:23.901Z,0
2017-08-01T00:12:25.714Z,0
2017-08-01T00:13:27.606Z,0
2017-08-01T00:14:29.483Z,0
2017-08-01T00:15:31.346Z,0
2017-08-01T00:16:45.492Z,0
2017-08-01T00:17:47.359Z,0
2017-08-01T00:18:49.238Z,0
2017-08-01T00:19:51.135Z,0
2017-08-01T00:20:52.971Z,0
2017-08-01T00:21:54.808Z,0
2017-08-01T00:22:56.717Z,0
2017-08-01T00:23:58.600Z,0
2017-08-01T00:25:00.470Z,0
2017-08-01T00:26:14.614Z,0
2017-08-01T00:27:16.491Z,0
2017-08-01T00:28:18.379Z,0
2017-08-01T00:29:20.257Z,0
2017-08-01T00:30:22.069Z,0
2017-08-01T00:31:23.875Z,0
2017-08-01T00:32:25.746Z,0
2017-08-01T00:33:27.620Z,0
2017-08-01T00:34:29.478Z,0
2017-08-01T00:35:43.622Z,0
2017-08-01T00:36:45.492Z,0
2017-08-01T00:37:47.368Z,0
2017-08-01T00:38:49.266Z,0
2017-08-01T00:39:51.097Z,0
2017-08-01T00:40:52.907Z,0
2017-08-01T00:41:54.781Z,0
2017-08-01T00:42:56.650Z,0
2017-08-01T00:43:58.518Z,0
2017-08-01T00:45:12.665Z,0
2017-08-01T00:46:14.534Z,0
2017-08-01T00:47:16.405Z,0
2017-08-01T00:48:18.278Z,0
2017-08-01T00:49:20.108Z,0
2017-08-01T00:50:21.920Z,0
2017-08-01T00:51:23.789Z,0
2017-08-01T00:52:25.661Z,0
2017-08-01T00:53:27.559Z,0
2017-08-01T00:54:41.727Z,0
2017-08-01T00:55:43.620Z,0
2017-08-01T00:56:45.494Z,0
2017-08-01T00:57:47.388Z,0
2017-08-01T00:58:49.204Z,0
2017-08-01T00:59:51.042Z,0
2017-08-01T01:00:52.937Z,0
2017-08-01T01:01:54.830Z,0
2017-08-01T01:02:56.701Z,0
2017-08-01T01:04:10.898Z,0
2017-08-01T01:05:12.841Z,0
2017-08-01T01:06:14.746Z,0
2017-08-01T01:07:16.840Z,0
2017-08-01T01:08:18.676Z,0
2017-08-01T01:09:20.511Z,0
2017-08-01T01:10:22.401Z,0
2017-08-01T01:11:24.274Z,0
2017-08-01T01:12:26.161Z,0
2017-08-01T01:13:40.311Z,0
2017-08-01T01:14:42.208Z,0
2017-08-01T01:15:44.083Z,0
2017-08-01T01:16:45.979Z,0
2017-08-01T01:17:47.816Z,0
2017-08-01T01:18:49.652Z,0
2017-08-01T01:19:51.545Z,0
2017-08-01T01:20:53.441Z,0
2017-08-01T01:21:55.309Z,0
2017-08-01T01:23:09.455Z,0
2017-08-01T01:24:11.347Z,0
2017-08-01T01:25:13.222Z,0
2017-08-01T01:26:15.098Z,0
2017-08-01T01:27:16.932Z,0
2017-08-01T01:28:18.764Z,0
2017-08-01T01:29:20.635Z,0
2017-08-01T01:30:22.514Z,0
2017-08-01T01:31:24.404Z,0
2017-08-01T01:32:38.544Z,0
2017-08-01T01:33:40.417Z,0
2017-08-01T01:34:42.316Z,0
2017-08-01T01:35:44.210Z,0
2017-08-01T01:36:46.020Z,0
2017-08-01T01:37:47.826Z,0
2017-08-01T01:38:49.722Z,0
2017-08-01T01:39:51.627Z,0
2017-08-01T01:40:53.523Z,0
2017-08-01T01:42:07.667Z,0
2017-08-01T01:43:09.563Z,0
2017-08-01T01:44:11.459Z,0
2017-08-01T01:45:13.358Z,0
2017-08-01T01:46:15.191Z,0
2017-08-01T01:47:17.003Z,0
2017-08-01T01:48:18.896Z,0
2017-08-01T01:49:20.771Z,0
2017-08-01T01:50:22.659Z,0
2017-08-01T01:51:36.802Z,0
2017-08-01T01:52:38.691Z,0
2017-08-01T01:53:40.586Z,0
2017-08-01T01:54:42.479Z,0
2017-08-01T01:55:44.313Z,0
2017-08-01T01:56:46.136Z,0
2017-08-01T01:57:48.011Z,0
2017-08-01T01:58:49.901Z,0
2017-08-01T01:59:51.777Z,0
2017-08-01T02:01:05.989Z,0
2017-08-01T02:02:07.857Z,0
2017-08-01T02:03:09.745Z,0
2017-08-01T02:04:11.620Z,0
2017-08-01T02:05:13.448Z,0
2017-08-01T02:06:15.254Z,0
2017-08-01T02:07:17.142Z,0
2017-08-01T02:08:19.016Z,0
2017-08-01T02:09:20.912Z,0
2017-08-01T02:10:35.075Z,0
2017-08-01T02:11:36.944Z,0
2017-08-01T02:12:38.820Z,0
2017-08-01T02:13:40.682Z,0
2017-08-01T02:14:42.511Z,0
2017-08-01T02:15:44.319Z,0
2017-08-01T02:16:46.207Z,0
2017-08-01T02:17:48.082Z,0
2017-08-01T02:18:49.977Z,0
2017-08-01T02:20:04.134Z,0
2017-08-01T02:21:06.008Z,0
2017-08-01T02:22:07.878Z,0
2017-08-01T02:23:09.768Z,0
2017-08-01T02:24:11.576Z,0
2017-08-01T02:25:13.392Z,0
2017-08-01T02:26:15.285Z,0
2017-08-01T02:27:17.176Z,0
2017-08-01T02:28:19.047Z,0
2017-08-01T02:29:33.189Z,0
2017-08-01T02:30:35.071Z,0
2017-08-01T02:31:36.943Z,0
2017-08-01T02:32:38.814Z,0
2017-08-01T02:33:40.645Z,0
2017-08-01T02:34:42.473Z,0
2017-08-01T02:35:44.344Z,0
2017-08-01T02:36:46.221Z,0
2017-08-01T02:37:48.118Z,0
2017-08-01T02:39:02.282Z,0
2017-08-01T02:40:04.173Z,0
2017-08-01T02:41:06.069Z,0
2017-08-01T02:42:07.962Z,0
2017-08-01T02:43:09.771Z,0
2017-08-01T02:44:11.576Z,0
2017-08-01T02:45:13.445Z,0
2017-08-01T02:46:15.313Z,4
2017-08-01T02:47:17.180Z,4
2017-08-01T02:48:31.369Z,0
2017-08-01T02:49:33.235Z,4
2017-08-01T02:50:35.107Z,4
2017-08-01T02:51:36.999Z,4
2017-08-01T02:52:38.807Z,4
2017-08-01T02:53:40.612Z,4
2017-08-01T02:54:42.491Z,8
2017-08-01T02:55:44.358Z,8
2017-08-01T02:56:46.229Z,8
2017-08-01T02:58:00.398Z,8
2017-08-01T02:59:02.283Z,12
2017-08-01T03:00:04.152Z,12
2017-08-01T03:01:06.029Z,12
2017-08-01T03:02:07.865Z,16
2017-08-01T03:03:09.695Z,20
2017-08-01T03:04:11.567Z,24
2017-08-01T03:05:13.459Z,24
2017-08-01T03:06:15.335Z,28
2017-08-01T03:07:29.496Z,32
2017-08-01T03:08:31.370Z,32
2017-08-01T03:09:33.260Z,40
2017-08-01T03:10:35.135Z,44
2017-08-01T03:11:36.968Z,48
2017-08-01T03:12:38.777Z,56
2017-08-01T03:13:40.667Z,64
2017-08-01T03:14:42.534Z,72
2017-08-01T03:15:44.406Z,80
2017-08-01T03:16:58.545Z,96
2017-08-01T03:18:00.420Z,104
2017-08-01T03:19:02.315Z,120
2017-08-01T03:20:04.190Z,136
2017-08-01T03:21:06.025Z,148
2017-08-01T03:22:07.854Z,168
2017-08-01T03:23:09.724Z,184
2017-08-01T03:24:11.636Z,204
2017-08-01T03:25:13.505Z,220
2017-08-01T03:26:27.664Z,244
2017-08-01T03:27:29.549Z,264
2017-08-01T03:28:31.428Z,288
2017-08-01T03:29:33.321Z,308
2017-08-01T03:30:35.157Z,332
2017-08-01T03:31:36.967Z,360
2017-08-01T03:32:38.838Z,388
2017-08-01T03:33:40.735Z,416
2017-08-01T03:34:42.607Z,444
2017-08-01T03:35:56.745Z,488
2017-08-01T03:36:58.622Z,524
2017-08-01T03:38:00.520Z,560
2017-08-01T03:39:02.417Z,600
2017-08-01T03:40:04.249Z,636
2017-08-01T03:41:06.057Z,684
2017-08-01T03:42:07.934Z,732
2017-08-01T03:43:09.834Z,776
2017-08-01T03:44:11.730Z,832
2017-08-01T03:45:25.875Z,892
2017-08-01T03:46:27.771Z,944
2017-08-01T03:47:29.687Z,1008
2017-08-01T03:48:31.583Z,1072
2017-08-01T03:49:33.425Z,1148
2017-08-01T03:50:35.258Z,1236
2017-08-01T03:51:37.155Z,1332
2017-08-01T03:52:39.030Z,1444
2017-08-01T03:53:40.908Z,1552
2017-08-01T03:54:55.051Z,1708
2017-08-01T03:55:56.922Z,1812
2017-08-01T03:56:58.797Z,1868
2017-08-01T03:58:00.721Z,1920
2017-08-01T03:59:02.524Z,1976
2017-08-01T04:00:04.332Z,2040
2017-08-01T04:01:06.216Z,2076
2017-08-01T04:02:08.108Z,2204
2017-08-01T04:03:10.006Z,2324
2017-08-01T04:04:24.150Z,2432
2017-08-01T04:05:26.017Z,2528
2017-08-01T04:06:27.891Z,2636
2017-08-01T04:07:29.790Z,2732
2017-08-01T04:08:31.627Z,2828
2017-08-01T04:09:33.435Z,2928
2017-08-01T04:10:35.315Z,3044
2017-08-01T04:11:37.191Z,3164
2017-08-01T04:12:39.083Z,3280
2017-08-01T04:13:53.239Z,3420
2017-08-01T04:14:55.134Z,3504
2017-08-01T04:15:57.032Z,3592
2017-08-01T04:16:58.902Z,3684
2017-08-01T04:18:00.724Z,3732
2017-08-01T04:19:02.538Z,3756
2017-08-01T04:20:04.437Z,3880
2017-08-01T04:21:06.338Z,3964
2017-08-01T04:22:08.235Z,4068
2017-08-01T04:23:22.398Z,4256
2017-08-01T04:24:24.276Z,4368
2017-08-01T04:25:26.153Z,4468
2017-08-01T04:26:28.053Z,4560
2017-08-01T04:27:29.892Z,4644
2017-08-01T04:28:31.710Z,4736
2017-08-01T04:29:33.583Z,4852
2017-08-01T04:30:35.490Z,4940
2017-08-01T04:31:37.393Z,5036
2017-08-01T04:32:51.541Z,5164
2017-08-01T04:33:53.410Z,5280
2017-08-01T04:34:55.286Z,5264
2017-08-01T04:35:57.187Z,5132
2017-08-01T04:36:59.030Z,5204
2017-08-01T04:38:00.845Z,5392
2017-08-01T04:39:02.721Z,5784
2017-08-01T04:40:04.623Z,5932
2017-08-01T04:41:06.522Z,6096
2017-08-01T04:42:20.671Z,6384
2017-08-01T04:43:22.550Z,6640
2017-08-01T04:44:24.452Z,6736
2017-08-01T04:45:26.352Z,6876
2017-08-01T04:46:28.194Z,7076
2017-08-01T04:47:30.032Z,7132
2017-08-01T04:48:31.935Z,7212
2017-08-01T04:49:33.840Z,7424
2017-08-01T04:50:35.712Z,7676
2017-08-01T04:51:49.865Z,7800
2017-08-01T04:52:51.741Z,7936
2017-08-01T04:53:53.618Z,8052
2017-08-01T04:54:55.522Z,8404
2017-08-01T04:55:57.361Z,8548
2017-08-01T04:56:59.176Z,8680
2017-08-01T04:58:01.056Z,8904
2017-08-01T04:59:02.957Z,8976
2017-08-01T05:00:04.827Z,9100
2017-08-01T05:01:18.985Z,9436
2017-08-01T05:02:20.883Z,9476
2017-08-01T05:03:22.759Z,9696
2017-08-01T05:04:24.635Z,9836
2017-08-01T05:05:26.453Z,10236
2017-08-01T05:06:28.275Z,10216
2017-08-01T05:07:30.176Z,10968
2017-08-01T05:08:32.050Z,11332
2017-08-01T05:09:33.934Z,11604
2017-08-01T05:10:48.084Z,11884
2017-08-01T05:11:49.990Z,11772
2017-08-01T05:12:51.889Z,11396
2017-08-01T05:13:53.785Z,13092
2017-08-01T05:14:55.630Z,13504
2017-08-01T05:15:57.470Z,13840
2017-08-01T05:16:59.353Z,13940
2017-08-01T05:18:01.259Z,13708
2017-08-01T05:19:03.161Z,13304
2017-08-01T05:20:17.312Z,12432
2017-08-01T05:21:19.196Z,10740
2017-08-01T05:22:21.057Z,8448
2017-08-01T05:23:22.957Z,8164
2017-08-01T05:24:24.802Z,8076
2017-08-01T05:25:26.642Z,8052
2017-08-01T05:26:28.538Z,8060
2017-08-01T05:27:30.417Z,8132
2017-08-01T05:28:32.299Z,8064
2017-08-01T05:29:46.472Z,8068
2017-08-01T05:30:48.344Z,7372
2017-08-01T05:31:50.220Z,7040
2017-08-01T05:32:52.119Z,6712
2017-08-01T05:33:53.940Z,6484
2017-08-01T05:34:55.778Z,6336
2017-08-01T05:35:57.660Z,5952
2017-08-01T05:36:59.563Z,5672
2017-08-01T05:38:01.440Z,5576
2017-08-01T05:39:15.592Z,5568
2017-08-01T05:40:17.491Z,5604
2017-08-01T05:41:19.370Z,5704
2017-08-01T05:42:21.250Z,5756
2017-08-01T05:43:23.091Z,5820
2017-08-01T05:44:24.905Z,5928
2017-08-01T05:45:26.806Z,6056
2017-08-01T05:46:28.703Z,6196
2017-08-01T05:47:30.586Z,6368
2017-08-01T05:48:44.763Z,6532
2017-08-01T05:49:46.657Z,6588
2017-08-01T05:50:48.538Z,6720
2017-08-01T05:51:50.439Z,6776
2017-08-01T05:52:52.280Z,6696
2017-08-01T05:53:54.098Z,6696
2017-08-01T05:54:55.974Z,6836
2017-08-01T05:55:57.851Z,6900
2017-08-01T05:56:59.750Z,6544
2017-08-01T05:58:13.900Z,5584
2017-08-01T05:59:15.773Z,4700
2017-08-01T06:00:17.655Z,3892
2017-08-01T06:01:19.550Z,3216
2017-08-01T06:02:21.366Z,2696
2017-08-01T06:03:23.178Z,2040
2017-08-01T06:04:25.058Z,1964
2017-08-01T06:05:26.955Z,2164
2017-08-01T06:06:28.829Z,2968
2017-08-01T06:07:42.980Z,3716
2017-08-01T06:08:44.855Z,4008
2017-08-01T06:09:46.751Z,3784
2017-08-01T06:10:48.625Z,3464
2017-08-01T06:11:50.439Z,3220
2017-08-01T06:12:52.258Z,3104
2017-08-01T06:13:54.160Z,3088
2017-08-01T06:14:56.057Z,3252
2017-08-01T06:15:57.953Z,3452
2017-08-01T06:17:12.107Z,3708
2017-08-01T06:18:13.981Z,3492
2017-08-01T06:19:15.885Z,3444
2017-08-01T06:20:17.759Z,3560
2017-08-01T06:21:19.572Z,3692
2017-08-01T06:22:21.388Z,3856
2017-08-01T06:23:23.286Z,4488
2017-08-01T06:24:25.164Z,5040
2017-08-01T06:25:27.044Z,5316
2017-08-01T06:26:41.197Z,5652
2017-08-01T06:27:43.065Z,5984
2017-08-01T06:28:44.944Z,6380
2017-08-01T06:29:46.845Z,6560
2017-08-01T06:30:48.660Z,6868
2017-08-01T06:31:50.470Z,7420
2017-08-01T06:32:52.341Z,7168
2017-08-01T06:33:54.221Z,6896
2017-08-01T06:34:56.107Z,6868
2017-08-01T06:36:10.261Z,6760
2017-08-01T06:37:12.137Z,6540
2017-08-01T06:38:14.038Z,6464
2017-08-01T06:39:15.948Z,6472
2017-08-01T06:40:17.778Z,6508
2017-08-01T06:41:19.610Z,6516
2017-08-01T06:42:21.489Z,6432
2017-08-01T06:43:23.391Z,5428
2017-08-01T06:44:25.264Z,5020
2017-08-01T06:45:39.414Z,4904
2017-08-01T06:46:41.308Z,4968
2017-08-01T06:47:43.187Z,5572
2017-08-01T06:48:45.089Z,6096
2017-08-01T06:49:46.928Z,6932
2017-08-01T06:50:48.739Z,7008
2017-08-01T06:51:50.621Z,7028
2017-08-01T06:52:52.496Z,7036
2017-08-01T06:53:54.376Z,6744
2017-08-01T06:55:08.520Z,6424
2017-08-01T06:56:10.396Z,6580
2017-08-01T06:57:12.270Z,7192
2017-08-01T06:58:14.173Z,7964
2017-08-01T06:59:16.012Z,8444
2017-08-01T07:00:17.828Z,9000
2017-08-01T07:01:19.710Z,9500
2017-08-01T07:02:21.578Z,9648
2017-08-01T07:03:23.474Z,9460
2017-08-01T07:04:37.605Z,8836
2017-08-01T07:05:39.441Z,8344
2017-08-01T07:06:41.323Z,8020
2017-08-01T07:07:43.223Z,7764
2017-08-01T07:08:45.103Z,7424
2017-08-01T07:09:46.935Z,7120
2017-08-01T07:10:48.752Z,6896
2017-08-01T07:11:50.631Z,6748
2017-08-01T07:12:52.512Z,6584
2017-08-01T07:14:06.718Z,6416
2017-08-01T07:15:08.596Z,6320
2017-08-01T07:16:10.510Z,6248
2017-08-01T07:17:12.389Z,6212
2017-08-01T07:18:14.208Z,6216
2017-08-01T07:19:16.025Z,6196
2017-08-01T07:20:17.922Z,6216
2017-08-01T07:21:19.799Z,6300
2017-08-01T07:22:21.680Z,6340
2017-08-01T07:23:35.876Z,6408
2017-08-01T07:24:37.755Z,6524
2017-08-01T07:25:39.659Z,6484
2017-08-01T07:26:41.534Z,6364
2017-08-01T07:27:43.375Z,6364
2017-08-01T07:28:45.192Z,6316
2017-08-01T07:29:47.093Z,6224
2017-08-01T07:30:48.970Z,6048
2017-08-01T07:31:50.845Z,6204
2017-08-01T07:33:05.045Z,6216
2017-08-01T07:34:06.959Z,6252
2017-08-01T07:35:08.849Z,6328
2017-08-01T07:36:10.752Z,6420
2017-08-01T07:37:12.591Z,6568
2017-08-01T07:38:14.404Z,6748
2017-08-01T07:39:16.286Z,7064
2017-08-01T07:40:18.166Z,7540
2017-08-01T07:41:20.067Z,8112
2017-08-01T07:42:34.238Z,8696
2017-08-01T07:43:36.110Z,9360
2017-08-01T07:44:37.991Z,10060
2017-08-01T07:45:39.906Z,10012
2017-08-01T07:46:41.749Z,9196
2017-08-01T07:47:43.585Z,8412
2017-08-01T07:48:45.482Z,7572
2017-08-01T07:49:47.368Z,7072
2017-08-01T07:50:49.271Z,6808
2017-08-01T07:52:03.443Z,6664
2017-08-01T07:53:05.319Z,6676
2017-08-01T07:54:07.194Z,6660
2017-08-01T07:55:09.095Z,6540
2017-08-01T07:56:10.907Z,6420
2017-08-01T07:57:12.725Z,6332
2017-08-01T07:58:14.605Z,6244
2017-08-01T07:59:16.501Z,6152
2017-08-01T08:00:18.396Z,6136
2017-08-01T08:01:32.566Z,6160
2017-08-01T08:02:34.464Z,6172
2017-08-01T08:03:36.340Z,6172
2017-08-01T08:04:38.223Z,6196
2017-08-01T08:05:40.063Z,6220
2017-08-01T08:06:41.900Z,6248
2017-08-01T08:07:43.801Z,6256
2017-08-01T08:08:45.702Z,6272
2017-08-01T08:09:47.600Z,6260
2017-08-01T08:11:01.751Z,6288
2017-08-01T08:12:03.626Z,6344
2017-08-01T08:13:05.500Z,6324
2017-08-01T08:14:07.373Z,6244
2017-08-01T08:15:09.198Z,5632
2017-08-01T08:16:11.035Z,5900
2017-08-01T08:17:12.910Z,6068
2017-08-01T08:18:14.841Z,6116
2017-08-01T08:19:16.713Z,6168
2017-08-01T08:20:30.862Z,6232
2017-08-01T08:21:32.742Z,6280
2017-08-01T08:22:34.618Z,6288
2017-08-01T08:23:36.528Z,6216
2017-08-01T08:24:38.354Z,6144
2017-08-01T08:25:40.198Z,6080
2017-08-01T08:26:42.077Z,6044
2017-08-01T08:27:43.956Z,6028
2017-08-01T08:28:45.857Z,6056
2017-08-01T08:30:00.012Z,6108
2017-08-01T08:31:01.914Z,6156
2017-08-01T08:32:03.814Z,6192
2017-08-01T08:33:05.710Z,6180
2017-08-01T08:34:07.526Z,6220
2017-08-01T08:35:09.345Z,6324
2017-08-01T08:36:11.239Z,6552
2017-08-01T08:37:13.143Z,6852
2017-08-01T08:38:15.047Z,7020
2017-08-01T08:39:29.214Z,6764
2017-08-01T08:40:31.094Z,6620
2017-08-01T08:41:32.966Z,6632
2017-08-01T08:42:34.842Z,6868
2017-08-01T08:43:36.690Z,7024
2017-08-01T08:44:38.521Z,7240
2017-08-01T08:45:40.429Z,7488
2017-08-01T08:46:42.331Z,7936
2017-08-01T08:47:44.231Z,8068
2017-08-01T08:48:58.386Z,8560
2017-08-01T08:50:00.285Z,8632
2017-08-01T08:51:02.191Z,8508
2017-08-01T08:52:04.085Z,8324
2017-08-01T08:53:05.904Z,8100
2017-08-01T08:54:07.743Z,7692
2017-08-01T08:55:09.600Z,7112
2017-08-01T08:56:11.420Z,6592
2017-08-01T08:57:13.262Z,6292
2017-08-01T08:58:27.433Z,6032
2017-08-01T08:59:29.306Z,5932
2017-08-01T09:00:31.182Z,5868
2017-08-01T09:01:33.065Z,5828
2017-08-01T09:02:34.880Z,5784
2017-08-01T09:03:36.718Z,5764
2017-08-01T09:04:38.593Z,5772
2017-08-01T09:05:40.469Z,5776
2017-08-01T09:06:42.349Z,5788
2017-08-01T09:07:56.497Z,5860
2017-08-01T09:08:58.353Z,5904
2017-08-01T09:10:00.272Z,5916
2017-08-01T09:11:02.172Z,5948
2017-08-01T09:12:04.012Z,6024
2017-08-01T09:13:05.832Z,6100
2017-08-01T09:14:07.730Z,6164
2017-08-01T09:15:09.612Z,6244
2017-08-01T09:16:11.515Z,6364
2017-08-01T09:17:25.689Z,6500
2017-08-01T09:18:27.565Z,6660
2017-08-01T09:19:29.442Z,6924
2017-08-01T09:20:31.320Z,7256
2017-08-01T09:21:33.194Z,7624
2017-08-01T09:22:34.995Z,8096
2017-08-01T09:23:36.912Z,8612
2017-08-01T09:24:38.841Z,8612
2017-08-01T09:25:40.735Z,8260
2017-08-01T09:26:54.907Z,7904
2017-08-01T09:27:56.780Z,7568
2017-08-01T09:28:58.655Z,7552
2017-08-01T09:30:00.529Z,7780
2017-08-01T09:31:02.375Z,7804
2017-08-01T09:32:04.220Z,7668
2017-08-01T09:33:06.127Z,7592
2017-08-01T09:34:08.040Z,7508
2017-08-01T09:35:09.941Z,7544
2017-08-01T09:36:24.150Z,8020
2017-08-01T09:37:26.083Z,8804
2017-08-01T09:38:28.046Z,9752
2017-08-01T09:39:30.190Z,10592
2017-08-01T09:40:32.059Z,10872
2017-08-01T09:41:33.878Z,10892
2017-08-01T09:42:35.771Z,11056
2017-08-01T09:43:37.699Z,10908
2017-08-01T09:44:39.619Z,10212
2017-08-01T09:45:53.821Z,9524
2017-08-01T09:46:55.719Z,9008
2017-08-01T09:47:57.633Z,8316
2017-08-01T09:48:59.526Z,7644
2017-08-01T09:50:01.363Z,7248
2017-08-01T09:51:03.224Z,6860
2017-08-01T09:52:05.165Z,6544
2017-08-01T09:53:07.142Z,6304
2017-08-01T09:54:09.149Z,6128
2017-08-01T09:55:23.316Z,5960
2017-08-01T09:56:25.255Z,5856
2017-08-01T09:57:27.253Z,5800
2017-08-01T09:58:29.188Z,5768
2017-08-01T09:59:31.210Z,5720
2017-08-01T10:00:33.065Z,5672
2017-08-01T10:01:34.997Z,5632
2017-08-01T10:02:36.908Z,5608
2017-08-01T10:03:38.720Z,5580
2017-08-01T10:04:52.962Z,5572
2017-08-01T10:05:54.873Z,5576
2017-08-01T10:06:56.772Z,5572
2017-08-01T10:07:58.656Z,5572
2017-08-01T10:09:00.497Z,5572
2017-08-01T10:10:02.318Z,5580
2017-08-01T10:11:04.229Z,5568
2017-08-01T10:12:06.153Z,5564
2017-08-01T10:13:08.087Z,5556
2017-08-01T10:14:22.282Z,5564
2017-08-01T10:15:24.193Z,5564
2017-08-01T10:16:26.095Z,5576
2017-08-01T10:17:28.007Z,5572
2017-08-01T10:18:29.872Z,5560
2017-08-01T10:19:31.776Z,5556
2017-08-01T10:20:33.749Z,5540
2017-08-01T10:21:35.679Z,5524
2017-08-01T10:22:37.620Z,5508
2017-08-01T10:23:51.834Z,5480
2017-08-01T10:24:53.708Z,5468
2017-08-01T10:25:55.608Z,5452
2017-08-01T10:26:57.510Z,5432
2017-08-01T10:27:59.335Z,5424
2017-08-01T10:29:01.172Z,5420
2017-08-01T10:30:03.074Z,5416
2017-08-01T10:31:04.977Z,5408
2017-08-01T10:32:06.858Z,5380
2017-08-01T10:33:21.078Z,5356
2017-08-01T10:34:22.954Z,5332
2017-08-01T10:35:24.837Z,5324
2017-08-01T10:36:26.719Z,5308
2017-08-01T10:37:28.562Z,5292
2017-08-01T10:38:30.407Z,5280
2017-08-01T10:39:32.280Z,5268
2017-08-01T10:40:34.181Z,5260
2017-08-01T10:41:36.062Z,5256
2017-08-01T10:42:50.238Z,5236
2017-08-01T10:43:52.136Z,5224
2017-08-01T10:44:54.020Z,5212
2017-08-01T10:45:55.900Z,5200
2017-08-01T10:46:57.740Z,5192
2017-08-01T10:47:59.575Z,5184
2017-08-01T10:49:01.462Z,5176
2017-08-01T10:50:03.365Z,5168
2017-08-01T10:51:05.249Z,5164
2017-08-01T10:52:19.427Z,5164
2017-08-01T10:53:21.304Z,5148
2017-08-01T10:54:23.206Z,5132
2017-08-01T10:55:25.114Z,5132
2017-08-01T10:56:26.961Z,5128
2017-08-01T10:57:28.795Z,5108
2017-08-01T10:58:30.676Z,5096
2017-08-01T10:59:32.579Z,5096
2017-08-01T11:00:34.456Z,5100
2017-08-01T11:01:48.608Z,5084
2017-08-01T11:02:50.481Z,5088
2017-08-01T11:03:52.362Z,5092
2017-08-01T11:04:54.266Z,5096
2017-08-01T11:05:56.115Z,5092
2017-08-01T11:06:57.967Z,5084
2017-08-01T11:07:59.841Z,5068
2017-08-01T11:09:01.748Z,5052
2017-08-01T11:10:03.621Z,5040
2017-08-01T11:11:17.771Z,5048
2017-08-01T11:12:19.649Z,5040
2017-08-01T11:13:21.552Z,5028
2017-08-01T11:14:23.457Z,5020
2017-08-01T11:15:25.303Z,5008
2017-08-01T11:16:27.118Z,5000
2017-08-01T11:17:28.933Z,4996
2017-08-01T11:18:30.752Z,4988
2017-08-01T11:19:32.592Z,4980
2017-08-01T11:20:46.770Z,4976
2017-08-01T11:21:48.664Z,4996
2017-08-01T11:22:50.570Z,5008
2017-08-01T11:23:52.448Z,5008
2017-08-01T11:24:54.269Z,4984
2017-08-01T11:25:56.109Z,4968
2017-08-01T11:26:58.044Z,4980
2017-08-01T11:27:59.922Z,4988
2017-08-01T11:29:01.803Z,5012
2017-08-01T11:30:15.988Z,5000
2017-08-01T11:31:17.901Z,5000
2017-08-01T11:32:19.797Z,5000
2017-08-01T11:33:21.699Z,4992
2017-08-01T11:34:23.524Z,4984
2017-08-01T11:35:25.377Z,4964
2017-08-01T11:36:27.275Z,4956
2017-08-01T11:37:29.166Z,4964
2017-08-01T11:38:31.050Z,4964
2017-08-01T11:39:45.232Z,4956
2017-08-01T11:40:47.157Z,4960
2017-08-01T11:41:49.032Z,4968
2017-08-01T11:42:50.930Z,4972
2017-08-01T11:43:52.756Z,4984
2017-08-01T11:44:54.597Z,4988
2017-08-01T11:45:56.501Z,4984
2017-08-01T11:46:58.363Z,4980
2017-08-01T11:48:00.257Z,4968
2017-08-01T11:49:14.405Z,4964
2017-08-01T11:50:16.285Z,4976
2017-08-01T11:51:18.589Z,4980
2017-08-01T11:52:20.552Z,4976
2017-08-01T11:53:22.395Z,4976
2017-08-01T11:54:24.231Z,4972
2017-08-01T11:55:26.115Z,4964
2017-08-01T11:56:28.024Z,4956
2017-08-01T11:57:29.919Z,4956
2017-08-01T11:58:44.082Z,4976
2017-08-01T11:59:45.979Z,4996
2017-08-01T12:00:47.860Z,5012
2017-08-01T12:01:49.739Z,5020
2017-08-01T12:02:51.581Z,5028
2017-08-01T12:03:53.422Z,5040
2017-08-01T12:04:55.323Z,5056
2017-08-01T12:05:57.230Z,5092
2017-08-01T12:06:59.141Z,5108
2017-08-01T12:08:13.407Z,5136
2017-08-01T12:09:15.289Z,5156
2017-08-01T12:10:17.167Z,5156
2017-08-01T12:11:19.071Z,5160
2017-08-01T12:12:20.923Z,5160
2017-08-01T12:13:22.763Z,5172
2017-08-01T12:14:24.640Z,5188
2017-08-01T12:15:26.546Z,5196
2017-08-01T12:16:28.445Z,5200
2017-08-01T12:17:42.604Z,5232
2017-08-01T12:18:44.505Z,5232
2017-08-01T12:19:46.385Z,5252
2017-08-01T12:20:48.264Z,5268
2017-08-01T12:21:50.122Z,5260
2017-08-01T12:22:51.968Z,5256
2017-08-01T12:23:53.874Z,5260
2017-08-01T12:24:55.756Z,5268
2017-08-01T12:25:57.649Z,5276
2017-08-01T12:27:11.855Z,5280
2017-08-01T12:28:13.742Z,5308
2017-08-01T12:29:15.616Z,5312
2017-08-01T12:30:17.502Z,5340
2017-08-01T12:31:19.481Z,5368
2017-08-01T12:32:21.268Z,5388
2017-08-01T12:33:23.174Z,5408
2017-08-01T12:34:25.081Z,5432
2017-08-01T12:35:26.981Z,5424
2017-08-01T12:36:41.158Z,5416
2017-08-01T12:37:43.033Z,5412
2017-08-01T12:38:44.916Z,5404
2017-08-01T12:39:46.824Z,5408
2017-08-01T12:40:48.712Z,5420
2017-08-01T12:41:50.605Z,5408
2017-08-01T12:42:52.504Z,5420
2017-08-01T12:43:54.390Z,5424
2017-08-01T12:44:56.290Z,5424
2017-08-01T12:46:10.457Z,5400
2017-08-01T12:47:12.334Z,5408
2017-08-01T12:48:14.219Z,5396
2017-08-01T12:49:16.184Z,5392
2017-08-01T12:50:17.993Z,5396
2017-08-01T12:51:19.819Z,5388
2017-08-01T12:52:21.737Z,5380
2017-08-01T12:53:23.650Z,5392
2017-08-01T12:54:25.528Z,5388
2017-08-01T12:55:39.715Z,5392
2017-08-01T12:56:41.623Z,5412
2017-08-01T12:57:43.527Z,5428
2017-08-01T12:58:45.647Z,5436
2017-08-01T12:59:47.505Z,5436
2017-08-01T13:00:49.356Z,5436
2017-08-01T13:01:51.200Z,5432
2017-08-01T13:02:53.469Z,5444
2017-08-01T13:03:55.273Z,5448
2017-08-01T13:05:09.594Z,5468
2017-08-01T13:06:11.521Z,5496
2017-08-01T13:07:13.509Z,5512
2017-08-01T13:08:15.466Z,5532
2017-08-01T13:09:17.347Z,5544
2017-08-01T13:10:19.198Z,5548
2017-08-01T13:11:21.118Z,5552
2017-08-01T13:12:23.070Z,5552
2017-08-01T13:13:24.994Z,5560
2017-08-01T13:14:39.220Z,5556
2017-08-01T13:15:41.138Z,5552
2017-08-01T13:16:43.105Z,5564
2017-08-01T13:17:45.043Z,5564
2017-08-01T13:18:46.923Z,5564
2017-08-01T13:19:48.806Z,5568
2017-08-01T13:20:50.686Z,5564
2017-08-01T13:21:52.705Z,5560
2017-08-01T13:22:54.653Z,5560
2017-08-01T13:24:08.903Z,5572
2017-08-01T13:25:10.805Z,5576
2017-08-01T13:26:12.710Z,5656
2017-08-01T13:27:14.733Z,5656
2017-08-01T13:28:16.651Z,5656
2017-08-01T13:29:18.483Z,5656
2017-08-01T13:30:20.400Z,5656
2017-08-01T13:31:22.477Z,5640
2017-08-01T13:32:24.347Z,5620
2017-08-01T13:33:38.523Z,5608
2017-08-01T13:34:40.405Z,5604
2017-08-01T13:35:42.289Z,5600
2017-08-01T13:36:44.166Z,5584
2017-08-01T13:37:45.991Z,5580
2017-08-01T13:38:47.814Z,5580
2017-08-01T13:39:49.729Z,5596
2017-08-01T13:40:51.618Z,5608
2017-08-01T13:41:53.525Z,5608
2017-08-01T13:43:07.673Z,5604
2017-08-01T13:44:09.553Z,5596
2017-08-01T13:45:11.440Z,5584
2017-08-01T13:46:13.615Z,5588
2017-08-01T13:47:15.508Z,5600
2017-08-01T13:48:17.429Z,5604
2017-08-01T13:49:19.304Z,5612
2017-08-01T13:50:21.282Z,5612
2017-08-01T13:51:23.140Z,5632
2017-08-01T13:52:37.355Z,5636
2017-08-01T13:53:39.257Z,5644
2017-08-01T13:54:41.137Z,5652
2017-08-01T13:55:43.043Z,5656
2017-08-01T13:56:44.883Z,5668
2017-08-01T13:57:46.706Z,5684
2017-08-01T13:58:48.603Z,5688
2017-08-01T13:59:50.487Z,5692
2017-08-01T14:00:52.367Z,5696
2017-08-01T14:02:06.526Z,5692
2017-08-01T14:03:08.404Z,5696
2017-08-01T14:04:10.311Z,5708
2017-08-01T14:05:12.221Z,5708
2017-08-01T14:06:14.038Z,5724
2017-08-01T14:07:15.880Z,5736
2017-08-01T14:08:17.785Z,5760
2017-08-01T14:09:19.693Z,5764
2017-08-01T14:10:21.594Z,5768
2017-08-01T14:11:35.761Z,5772
2017-08-01T14:12:37.661Z,5792
2017-08-01T14:13:39.573Z,5804
2017-08-01T14:14:41.481Z,5812
2017-08-01T14:15:43.331Z,5820
2017-08-01T14:16:45.151Z,5812
2017-08-01T14:17:47.052Z,5820
2017-08-01T14:18:48.938Z,5840
2017-08-01T14:19:50.839Z,5864
2017-08-01T14:21:04.994Z,5868